Ridgway, IL (62979)

10:51 AM CDT on March 28, 2017 (GMT -0500)
1 BLOCK N.OF MAIN ST.RIDGWAY,IL. | | Change Station

Elev 377 ft 37.80 °N, 88.26 °W | Updated 1 second ago

Overcast
Overcast
54.0 °F
Feels Like 54.0 °F
N
2.3
Wind Variable Wind from North
Gusts 2.3 mph

Today
High -- | Low -- °F
--% Chance of Precip.
Yesterday
High -- | Low -- °F
Precip. -- in
Pressure 30.07 in
Visibility 7.0 miles
Clouds Overcast 1100 ft
Dew Point Not available.
Humidity Not available.
Rainfall 0.00 in
Snow Depth Not available.
6:43 AM 7:12 PM
New Moon, 0% visible
METAR KHSB 281535Z AUTO 36007KT 7SM OVC011 13/11 A3007 RMK AO2 T01250106
Pressure 30.07 in
Visibility 7.0 miles
Clouds Overcast 1100 ft
Dew Point Not available.
Humidity Not available.
Rainfall 0.00 in
Snow Depth Not available.
6:43 AM 7:12 PM
New Moon, 0% visible
METAR KHSB 281535Z AUTO 36007KT 7SM OVC011 13/11 A3007 RMK AO2 T01250106

Get Severe Weather Alerts

Thanks for signing up!

Be on the lookout for a verification email in your inbox.

You'll start receiving the daily forecast at 8 AM.

×

10-Day Weather Forecast

Almanac

Astronomy

Mar. 28, 2017 Rise Set
Actual Time
Civil Twilight
Nautical Twilight
Astronomical Twilight
Moon
Length of Visible Light
Length of Day
Tomorrow will be .
, % of the Moon is Illuminated

Today's Extremes

State Highs State Lows

Community

WunderPhotos

Upload Photos

1,962,540 photos uploaded!

WunderBlog® & News

Nearby

Air Quality

  Air Quality AQ Index Pollutant
Not available.

Snow Depth

Station Depth Elevation

Earthquake Activity

City Distance Mag. Time & Date
Minimum magnitude displayed is 2.5.

Earthquake Activity

City Distance Mag. Time & Date
Minimum magnitude displayed is 2.5.

Coastal Water Temperatures

Place Temperature

Stations

Nearby Weather Stations

Station Location Temp. Windchill Dew Point Humidity Wind Precip. Elev Updated Type
                   

Watches & Warnings

There are currently no watches in effect.